ePrivacy and GPDR Cookie Consent by Cookie Consent
EmailTwitter


Surface observations / Canada / CYYZ (71624)

Regions: Quebec | Canada | USA | Europe | France | UK | Elsewhere
Station
Display
Info & Location for CYYZ (71624) | Help decoding METAR

Weather Conditions observed on 2024/05/26 at 22:00 UTC at TORONTO A, ON (CYYZ)

Sky conditions: partly cloudy.

Temperature: 21.0 Celsius.

Dewpoint: 9.0 Celsius.

Relative Humidity: 46%

Winds: East at 17 km/h or 9 knots.

Gust: 30 km/h or 16 knots.

Mean Sea level Pressure: 101.04 kilopascals.

Altimeter Setting (QNH): 101.02 kilopascals or 29.83 inches of mercury.

Horizontal visibility: 15.00 statute miles or 24.00 kilometers.

Height of the Ceiling: 7925 metres ( 26000 feet ).

Coded METAR:

CYYZ 262200Z 09009G16KT 15SM FEW220 BKN260 21/09 A2983 RMK CI2CS5 SLP104

DENSITY ALT 1600FT=